This is the latest recevied weather packets stored in our database for station/object SV1TQE-1. If no packets are shown the sender has not sent any weather packets the latest 10 day(s).
| Time | Temp. | Humidity | Pressure | Rain* | Wind** | Luminosity | Snow |
|---|---|---|---|---|---|---|---|
| 1787813538 | 34.44° C | 37% | 1020.7 hPa | - | - | - | - |
| 1787812637 | 35° C | 36% | 1020.6 hPa | - | - | - | - |
| 1787810837 | 35° C | 45% | 1020.4 hPa | - | - | - | - |
| 1787809937 | 34.44° C | 47% | 1020.4 hPa | - | - | - | - |
| 1787809037 | 33.89° C | 49% | 1020.2 hPa | - | - | - | - |
| 1787808137 | 33.33° C | 52% | 1020.1 hPa | - | - | - | - |
| 1787807237 | 32.78° C | 53% | 1020 hPa | - | - | - | - |
| 1787806347 | 31.67° C | 56% | 1020 hPa | - | - | - | - |
| 1787805436 | 30.56° C | 59% | 1020 hPa | - | - | - | - |
| 1787804536 | 29.44° C | 63% | 1019.8 hPa | - | - | - | - |
| 1787803624 | 28.33° C | 68% | 1019.6 hPa | - | - | - | - |
| 1787802724 | 28.33° C | 69% | 1019.5 hPa | - | - | - | - |
| 1787801824 | 28.33° C | 68% | 1019.4 hPa | - | - | - | - |
| 1787800923 | 28.89° C | 66% | 1019.2 hPa | - | - | - | - |
| 1787800024 | 28.33° C | 70% | 1019.1 hPa | - | - | - | - |
| 1787799123 | 27.78° C | 67% | 1019.1 hPa | - | - | - | - |
| 1787798223 | 28.33° C | 66% | 1018.9 hPa | - | - | - | - |
| 1787797326 | 28.33° C | 62% | 1018.6 hPa | - | - | - | - |
| 1787796418 | 28.33° C | 64% | 1018.6 hPa | - | - | - | - |
| 1787795518 | 28.33° C | 62% | 1018.6 hPa | - | - | - | - |
| 1787794618 | 28.33° C | 62% | 1018.6 hPa | - | - | - | - |
| 1787793718 | 28.33° C | 61% | 1018.6 hPa | - | - | - | - |
| 1787792818 | 28.33° C | 61% | 1018.6 hPa | - | - | - | - |
| 1787791918 | 28.89° C | 60% | 1018.6 hPa | - | - | - | - |
| 1787791017 | 28.89° C | 61% | 1018.6 hPa | - | - | - | - |
* Rain since midnight (hover to see other rain measurements)
** Current wind speed in m/s (hover to see current wind gust speed)